Time;durP1;ratioP1;P1;durP2;ratioP2;P2;SDS_P1;SDS_P2;PMS_P1;PMS_P2;Temp;Humidity;BMP_temperature;BMP_pressure;BME280_temperature;BME280_humidity;BME280_pressure;Samples;Min_cycle;Max_cycle;Signal;HPM_P1;HPM_P2
2022/07/09 00:00:44;;;;;;;8.38;1.65;;;;;;;16.74;70.56;100317.53;4347411;32;32936;-75
2022/07/09 00:03:31;;;;;;;4.80;1.40;;;;;;;16.93;69.80;100317.09;4356514;32;33912;-74
2022/07/09 00:06:17;;;;;;;3.95;1.40;;;;;;;17.53;67.31;100319.34;4355590;32;35685;-74
2022/07/09 00:09:04;;;;;;;3.28;1.40;;;;;;;16.93;69.27;100330.94;4336427;32;34409;-73
2022/07/09 00:11:52;;;;;;;4.18;1.90;;;;;;;17.27;68.21;100332.59;4354262;32;34808;-74
2022/07/09 00:14:38;;;;;;;4.80;1.90;;;;;;;16.91;69.73;100328.50;4345979;32;36398;-74
2022/07/09 00:17:25;;;;;;;4.78;1.55;;;;;;;17.14;68.25;100328.19;4354152;32;35793;-74
2022/07/09 00:20:12;;;;;;;4.78;1.40;;;;;;;17.54;66.99;100320.16;4335042;32;34147;-74
2022/07/09 00:22:58;;;;;;;4.37;1.58;;;;;;;17.68;65.99;100323.44;4345343;32;34649;-74
2022/07/09 00:25:45;;;;;;;3.42;1.60;;;;;;;17.22;67.23;100330.06;4356079;32;35926;-74
2022/07/09 00:28:31;;;;;;;4.53;1.62;;;;;;;16.63;70.39;100323.44;4348791;32;34979;-74
2022/07/09 00:31:18;;;;;;;5.12;1.40;;;;;;;17.05;68.94;100326.28;4344235;32;34428;-74
2022/07/09 00:34:04;;;;;;;4.20;1.90;;;;;;;16.47;72.06;100327.12;4342533;32;35334;-74
2022/07/09 00:36:51;;;;;;;3.55;1.40;;;;;;;16.75;70.33;100317.19;4344603;32;35906;-75
2022/07/09 00:39:37;;;;;;;4.65;1.30;;;;;;;16.69;70.40;100320.50;4351795;32;35791;-75
2022/07/09 00:42:24;;;;;;;3.80;1.35;;;;;;;16.20;72.51;100315.41;4338063;32;34174;-74
2022/07/09 00:45:11;;;;;;;6.62;2.60;;;;;;;15.96;74.75;100318.72;4357202;32;34196;-74
2022/07/09 00:47:58;;;;;;;4.80;1.85;;;;;;;16.07;74.39;100311.69;4357831;32;35936;-74
2022/07/09 00:50:44;;;;;;;4.03;1.80;;;;;;;15.94;74.50;100323.78;4342076;32;34344;-75
2022/07/09 00:53:31;;;;;;;5.05;1.48;;;;;;;15.66;76.10;100321.38;4351473;32;34347;-74
2022/07/09 00:56:17;;;;;;;3.67;1.60;;;;;;;15.92;74.85;100324.09;4335088;32;34649;-75
2022/07/09 00:59:07;;;;;;;4.30;1.65;;;;;;;15.74;75.58;100320.59;4341805;32;35605;-74
2022/07/09 01:01:54;;;;;;;4.18;1.33;;;;;;;15.56;76.77;100316.19;4342378;32;34616;-75
2022/07/09 01:04:41;;;;;;;5.15;1.75;;;;;;;15.74;76.07;100320.59;4355938;32;34075;-75
2022/07/09 01:07:27;;;;;;;7.47;1.70;;;;;;;15.79;75.86;100318.78;4347249;32;34600;-74
2022/07/09 01:10:14;;;;;;;6.35;1.70;;;;;;;15.63;76.58;100313.75;4357918;32;35732;-75
2022/07/09 01:13:02;;;;;;;3.85;1.70;;;;;;;15.72;76.13;100309.06;4357575;32;34866;-73
2022/07/09 01:15:48;;;;;;;8.35;1.80;;;;;;;15.41;77.73;100308.44;4357823;32;34434;-74
2022/07/09 01:18:35;;;;;;;4.25;1.62;;;;;;;16.02;74.97;100306.34;4357587;32;35121;-75
2022/07/09 01:21:23;;;;;;;5.55;1.27;;;;;;;15.72;76.26;100306.28;4357887;32;34472;-75
2022/07/09 01:24:09;;;;;;;4.60;1.62;;;;;;;15.30;78.26;100300.47;4338966;32;34763;-75
2022/07/09 01:26:56;;;;;;;4.97;1.60;;;;;;;15.42;78.33;100302.56;4357789;32;34061;-75
2022/07/09 01:29:48;;;;;;;5.18;1.40;;;;;;;15.43;78.10;100300.66;4346281;32;35633;-75
2022/07/09 01:32:35;;;;;;;6.95;2.00;;;;;;;15.60;76.71;100305.31;4347639;32;34541;-75
2022/07/09 01:35:21;;;;;;;7.32;1.40;;;;;;;15.27;78.50;100287.34;4347853;32;34764;-75
2022/07/09 01:38:07;;;;;;;4.37;1.50;;;;;;;15.25;79.24;100284.09;4347319;32;34399;-74
2022/07/09 01:40:54;;;;;;;3.50;1.67;;;;;;;14.99;80.77;100294.34;4359605;32;35176;-74
2022/07/09 01:43:40;;;;;;;4.68;1.70;;;;;;;15.39;79.00;100280.34;4357647;32;34917;-76
2022/07/09 01:46:26;;;;;;;7.50;2.47;;;;;;;14.97;81.24;100285.56;4358559;32;34553;-75
2022/07/09 01:49:12;;;;;;;4.90;1.80;;;;;;;15.11;80.20;100277.91;4358590;32;34793;-74
2022/07/09 01:51:58;;;;;;;3.90;1.58;;;;;;;15.23;79.61;100286.38;4359291;32;34311;-75
2022/07/09 01:54:44;;;;;;;6.00;1.55;;;;;;;14.99;80.66;100286.84;4347611;32;34985;-75
2022/07/09 01:57:30;;;;;;;7.95;1.80;;;;;;;14.91;81.04;100292.38;4347798;32;34986;-74
2022/07/09 02:00:19;;;;;;;8.90;1.92;;;;;;;14.73;82.43;100286.03;4358883;32;34313;-74
2022/07/09 02:03:05;;;;;;;4.55;1.73;;;;;;;14.73;82.47;100283.28;4357954;32;34770;-74
2022/07/09 02:05:52;;;;;;;4.00;1.55;;;;;;;14.66;82.74;100278.25;4337086;32;34901;-75
2022/07/09 02:08:39;;;;;;;6.20;1.70;;;;;;;14.72;82.57;100282.47;4333120;32;34703;-74
2022/07/09 02:11:26;;;;;;;4.15;1.70;;;;;;;14.84;81.83;100274.37;4344594;32;34102;-74
2022/07/09 02:14:12;;;;;;;6.07;1.83;;;;;;;15.19;80.37;100276.31;4344293;32;34297;-74
2022/07/09 02:16:59;;;;;;;6.32;1.98;;;;;;;14.81;82.68;100277.78;4334504;32;34862;-75
2022/07/09 02:19:45;;;;;;;6.82;1.60;;;;;;;14.69;82.92;100276.81;4345388;32;35666;-74
2022/07/09 02:22:31;;;;;;;5.50;1.65;;;;;;;14.78;82.60;100278.41;4341064;32;35305;-75
2022/07/09 02:25:18;;;;;;;6.07;2.12;;;;;;;14.90;82.02;100288.00;4344910;32;35085;-75
2022/07/09 02:28:04;;;;;;;6.68;1.80;;;;;;;14.35;85.17;100284.66;4354634;32;34808;-74
2022/07/09 02:30:50;;;;;;;5.75;1.80;;;;;;;14.77;82.76;100276.81;4334425;32;35799;-74
2022/07/09 02:33:36;;;;;;;3.58;1.77;;;;;;;14.76;82.56;100277.94;4358269;32;35364;-74
2022/07/09 02:36:23;;;;;;;11.32;3.20;;;;;;;14.82;82.08;100273.88;4344902;32;34219;-74
2022/07/09 02:39:09;;;;;;;4.20;1.75;;;;;;;14.85;82.84;100280.69;4344296;32;35844;-75
2022/07/09 02:41:57;;;;;;;8.18;1.95;;;;;;;14.81;82.07;100286.06;4353947;32;34533;-74
2022/07/09 02:44:43;;;;;;;5.07;2.00;;;;;;;14.74;82.89;100279.38;4345910;32;34384;-74
2022/07/09 02:47:29;;;;;;;4.93;1.65;;;;;;;15.21;80.00;100276.78;4334986;32;35667;-74
2022/07/09 02:50:16;;;;;;;6.12;1.85;;;;;;;14.88;82.14;100273.72;4345799;32;35638;-75
2022/07/09 02:53:02;;;;;;;7.20;1.90;;;;;;;14.85;83.08;100278.75;4344404;32;35841;-74
2022/07/09 02:55:49;;;;;;;4.28;2.15;;;;;;;14.96;82.23;100276.47;4355819;32;33235;-75
2022/07/09 02:58:35;;;;;;;5.78;1.73;;;;;;;14.50;84.85;100279.81;4348542;32;34444;-74
2022/07/09 03:01:22;;;;;;;4.22;1.92;;;;;;;14.65;83.72;100276.62;4357110;32;38830;-74
2022/07/09 03:04:08;;;;;;;4.37;1.58;;;;;;;14.52;85.13;100278.41;4355777;32;36438;-74
2022/07/09 03:06:55;;;;;;;9.32;2.40;;;;;;;14.32;86.46;100271.50;4350366;32;35022;-74
2022/07/09 03:09:41;;;;;;;8.10;2.20;;;;;;;14.54;85.17;100280.81;4350297;32;34752;-74
2022/07/09 03:12:27;;;;;;;6.25;2.00;;;;;;;14.18;87.62;100268.88;4348320;32;35992;-74
2022/07/09 03:15:16;;;;;;;5.85;2.05;;;;;;;14.66;84.51;100275.50;4350372;32;34235;-74
2022/07/09 03:18:02;;;;;;;7.00;1.95;;;;;;;14.53;85.20;100273.69;4348255;32;34443;-74
2022/07/09 03:20:49;;;;;;;2.67;1.73;;;;;;;14.58;85.13;100268.03;4352135;32;34218;-75
2022/07/09 03:23:36;;;;;;;4.90;1.92;;;;;;;14.96;82.57;100267.37;4342740;32;36392;-74
2022/07/09 03:26:22;;;;;;;5.55;2.20;;;;;;;14.57;85.14;100275.50;4354714;32;34999;-74
2022/07/09 03:29:08;;;;;;;4.35;2.10;;;;;;;14.48;86.10;100282.88;4356074;32;33989;-75
2022/07/09 03:31:55;;;;;;;6.20;2.65;;;;;;;14.39;87.26;100285.63;4350310;32;34346;-74
2022/07/09 03:34:41;;;;;;;5.00;2.00;;;;;;;14.59;85.51;100272.41;4358437;32;34977;-75
2022/07/09 03:37:27;;;;;;;5.85;1.90;;;;;;;14.81;84.34;100283.28;4349656;32;34883;-75
2022/07/09 03:40:14;;;;;;;6.40;1.90;;;;;;;15.19;82.22;100281.81;4345686;32;33870;-74
2022/07/09 03:43:00;;;;;;;5.65;2.37;;;;;;;14.87;83.73;100281.19;4350019;32;35622;-74
2022/07/09 03:45:46;;;;;;;4.00;2.10;;;;;;;14.98;83.13;100289.97;4343217;32;36007;-75
2022/07/09 03:48:34;;;;;;;3.55;1.90;;;;;;;15.27;82.11;100286.53;4350708;32;34389;-76
2022/07/09 03:51:21;;;;;;;4.43;2.05;;;;;;;14.77;83.86;100284.25;4353994;32;36054;-74
2022/07/09 03:54:08;;;;;;;5.43;2.08;;;;;;;14.84;84.74;100293.69;4354605;32;34674;-73
2022/07/09 03:56:54;;;;;;;7.55;2.33;;;;;;;15.30;81.32;100286.69;4346757;32;34910;-74
2022/07/09 03:59:40;;;;;;;7.80;2.45;;;;;;;15.23;81.34;100286.38;4343709;32;34969;-75
2022/07/09 04:02:27;;;;;;;8.35;2.15;;;;;;;14.83;84.13;100289.31;4343684;32;34070;-74
2022/07/09 04:05:14;;;;;;;3.60;2.15;;;;;;;14.62;85.91;100289.09;4358330;32;35150;-74
2022/07/09 04:08:01;;;;;;;8.00;2.03;;;;;;;14.50;86.89;100299.13;4357987;32;35931;-74
2022/07/09 04:10:47;;;;;;;5.90;2.15;;;;;;;14.57;85.93;100296.72;4357763;32;34886;-76
2022/07/09 04:13:33;;;;;;;5.05;2.15;;;;;;;14.37;87.05;100298.09;4358232;32;34028;-75
2022/07/09 04:16:20;;;;;;;7.72;2.67;;;;;;;14.68;85.58;100300.78;4341933;32;35566;-74
2022/07/09 04:19:06;;;;;;;6.68;2.45;;;;;;;14.35;87.45;100301.19;4358274;32;34653;-75
2022/07/09 04:21:53;;;;;;;6.03;2.40;;;;;;;14.80;85.95;100302.94;4358237;32;34421;-74
2022/07/09 04:24:39;;;;;;;5.93;2.53;;;;;;;14.51;86.36;100301.53;4357612;32;35213;-75
2022/07/09 04:27:25;;;;;;;4.80;2.35;;;;;;;14.59;86.34;100299.97;4358713;32;34723;-74
2022/07/09 04:30:11;;;;;;;8.50;2.62;;;;;;;14.79;85.65;100299.34;4358266;32;35998;-75
2022/07/09 04:32:57;;;;;;;9.15;2.62;;;;;;;14.84;84.35;100299.19;4342816;32;35817;-75
2022/07/09 04:35:45;;;;;;;4.70;2.40;;;;;;;15.01;83.26;100305.88;4358213;32;34322;-75
2022/07/09 04:38:31;;;;;;;8.23;2.70;;;;;;;15.32;81.94;100302.13;4357624;32;36083;-74
2022/07/09 04:41:17;;;;;;;6.80;2.47;;;;;;;14.78;84.08;100308.78;4358249;32;35841;-75
2022/07/09 04:44:04;;;;;;;4.90;2.60;;;;;;;14.91;83.33;100306.16;4356861;32;34779;-74
2022/07/09 04:46:50;;;;;;;5.05;2.70;;;;;;;14.76;84.24;100308.28;4346333;32;34402;-75
2022/07/09 04:49:36;;;;;;;7.75;2.65;;;;;;;14.39;85.61;100307.69;4358298;32;34444;-75
2022/07/09 04:52:26;;;;;;;4.95;2.53;;;;;;;14.49;86.19;100309.34;4345996;32;34652;-75
2022/07/09 04:55:12;;;;;;;4.37;2.05;;;;;;;14.48;86.29;100312.41;4356126;32;34714;-75
2022/07/09 04:57:58;;;;;;;7.82;2.60;;;;;;;14.68;85.26;100309.06;4348504;32;34867;-75
2022/07/09 05:00:45;;;;;;;8.35;2.58;;;;;;;14.69;84.53;100305.19;4345946;32;34415;-75
2022/07/09 05:03:31;;;;;;;7.37;2.33;;;;;;;14.55;85.27;100304.53;4346261;32;35079;-75
2022/07/09 05:06:19;;;;;;;8.27;3.00;;;;;;;14.68;84.47;100305.50;4357250;32;34402;-75
2022/07/09 05:09:04;;;;;;;4.60;2.42;;;;;;;14.51;85.52;100307.06;4357930;32;35812;-75
2022/07/09 05:11:51;;;;;;;9.50;2.62;;;;;;;14.61;85.02;100314.25;4357315;32;35583;-75
2022/07/09 05:14:38;;;;;;;7.00;2.37;;;;;;;14.86;83.46;100307.16;4338477;32;35762;-75
2022/07/09 05:17:24;;;;;;;6.55;2.25;;;;;;;14.91;83.12;100311.69;4339512;32;35762;-75
2022/07/09 05:20:11;;;;;;;8.05;2.60;;;;;;;14.98;83.06;100306.50;4351159;32;34385;-74
2022/07/09 05:22:57;;;;;;;4.93;2.62;;;;;;;15.12;81.51;100307.16;4357124;32;34349;-75
2022/07/09 05:25:43;;;;;;;4.65;2.10;;;;;;;15.41;79.86;100298.19;4357776;32;36014;-75
2022/07/09 05:28:29;;;;;;;5.62;2.22;;;;;;;15.54;78.65;100307.44;4357840;32;35006;-75
2022/07/09 05:31:16;;;;;;;7.93;2.55;;;;;;;15.96;77.18;100302.13;4357006;32;34910;-77
2022/07/09 05:34:22;;;;;;;5.90;2.55;;;;;;;15.93;77.52;100294.50;4356744;32;34711;-77
2022/07/09 05:37:09;;;;;;;6.93;2.30;;;;;;;15.52;78.71;100309.72;4357710;32;35546;-76
2022/07/09 05:40:00;;;;;;;5.20;2.40;;;;;;;15.84;76.98;100305.59;4335613;32;34368;-76
2022/07/09 05:42:46;;;;;;;7.97;2.17;;;;;;;15.90;77.02;100309.00;4345652;32;34346;-74
2022/07/09 05:45:32;;;;;;;6.72;2.50;;;;;;;15.89;77.26;100307.38;4356015;32;35617;-75
2022/07/09 05:48:19;;;;;;;9.05;2.30;;;;;;;15.86;77.81;100308.84;4357033;32;34894;-75
2022/07/09 05:51:05;;;;;;;7.03;2.25;;;;;;;15.96;77.74;100304.91;4356749;32;34933;-76
2022/07/09 05:53:51;;;;;;;8.32;3.72;;;;;;;15.81;77.34;100305.47;4357755;32;35426;-75
2022/07/09 05:56:38;;;;;;;7.55;2.40;;;;;;;15.81;77.34;100299.94;4339661;32;34588;-75
2022/07/09 05:59:24;;;;;;;7.37;2.60;;;;;;;16.09;76.68;100300.31;4352573;32;34941;-75
2022/07/09 06:02:11;;;;;;;5.47;2.35;;;;;;;16.16;76.45;100306.94;4354060;32;33720;-75
2022/07/09 06:04:57;;;;;;;6.03;2.92;;;;;;;16.16;76.45;100306.94;4346239;32;35358;-76
2022/07/09 06:07:45;;;;;;;10.75;2.70;;;;;;;16.55;74.64;100301.37;4342699;32;34638;-79
2022/07/09 06:10:31;;;;;;;6.10;2.25;;;;;;;16.61;73.77;100300.84;4349778;32;34990;-78
2022/07/09 06:13:18;;;;;;;7.30;2.60;;;;;;;16.76;73.07;100312.47;4350121;32;35256;-78
2022/07/09 06:16:04;;;;;;;6.43;2.55;;;;;;;16.44;73.70;100306.47;4348636;32;34241;-81
2022/07/09 06:18:51;;;;;;;6.30;2.25;;;;;;;16.39;73.64;100303.91;4351794;32;34616;-79
2022/07/09 06:21:37;;;;;;;6.28;2.50;;;;;;;16.81;72.21;100295.69;4356795;32;36074;-79
2022/07/09 06:24:24;;;;;;;7.55;2.90;;;;;;;16.68;72.52;100299.50;4343974;32;35355;-82
2022/07/09 06:27:11;;;;;;;5.75;2.25;;;;;;;16.94;71.60;100302.13;4355203;32;34309;-82
2022/07/09 06:29:57;;;;;;;8.45;2.95;;;;;;;16.85;71.70;100300.22;4351607;32;34747;-81
2022/07/09 06:32:43;;;;;;;7.25;2.25;;;;;;;16.84;72.10;100292.25;4353256;32;35069;-78
2022/07/09 06:35:30;;;;;;;10.48;2.83;;;;;;;17.04;71.21;100299.72;4355052;32;34929;-79
2022/07/09 06:38:18;;;;;;;6.97;2.85;;;;;;;17.05;70.66;100304.13;4349757;32;35345;-83
2022/07/09 06:41:04;;;;;;;6.65;2.85;;;;;;;17.37;69.44;100314.78;4334055;32;34127;-78
2022/07/09 06:43:51;;;;;;;7.05;2.60;;;;;;;17.26;69.78;100309.66;4351852;32;34564;-78
2022/07/09 06:46:38;;;;;;;6.80;2.42;;;;;;;17.63;68.26;100295.94;4345013;32;34957;-79
2022/07/09 06:49:25;;;;;;;9.73;2.80;;;;;;;18.05;67.03;100306.09;4351389;32;34374;-82
2022/07/09 06:52:11;;;;;;;6.60;2.40;;;;;;;17.92;67.00;100319.91;4352355;32;34681;-77
2022/07/09 06:54:58;;;;;;;4.57;2.42;;;;;;;17.80;67.48;100305.25;4350222;32;34561;-80
2022/07/09 06:57:44;;;;;;;6.05;2.60;;;;;;;18.47;65.28;100303.06;4336582;32;34879;-79
2022/07/09 07:00:31;;;;;;;8.15;2.92;;;;;;;18.53;64.28;100304.47;4343681;32;33474;-76
2022/07/09 07:03:17;;;;;;;4.95;2.45;;;;;;;18.69;63.86;100302.59;4349615;32;35084;-80
2022/07/09 07:06:03;;;;;;;8.13;2.72;;;;;;;18.63;63.68;100302.03;4346618;32;34989;-79
2022/07/09 07:08:50;;;;;;;5.68;2.03;;;;;;;18.10;65.70;100305.84;4350823;32;34637;-79
2022/07/09 07:11:36;;;;;;;6.70;2.15;;;;;;;18.39;65.01;100294.53;4352658;32;35120;-79
2022/07/09 07:14:23;;;;;;;8.23;2.60;;;;;;;18.99;61.64;100302.34;4350921;32;34209;-80
2022/07/09 07:17:09;;;;;;;8.57;2.70;;;;;;;18.62;62.94;100292.09;4353633;32;34768;-79
2022/07/09 07:19:55;;;;;;;6.18;2.05;;;;;;;18.77;63.08;100298.09;4335217;32;34922;-78
2022/07/09 07:22:42;;;;;;;9.82;2.25;;;;;;;18.96;61.58;100297.50;4352333;32;34379;-77
2022/07/09 07:25:28;;;;;;;5.22;2.17;;;;;;;18.82;62.50;100290.34;4351957;32;35600;-79
2022/07/09 07:28:14;;;;;;;7.37;3.12;;;;;;;19.23;60.81;100299.47;4346077;32;36175;-80
2022/07/09 07:31:01;;;;;;;6.05;2.75;;;;;;;19.47;60.53;100297.75;4344608;32;34858;-79
2022/07/09 07:33:47;;;;;;;4.90;2.00;;;;;;;19.64;59.39;100291.06;4344238;32;34442;-79
2022/07/09 07:36:34;;;;;;;5.37;2.25;;;;;;;19.93;58.61;100298.22;4347194;32;34715;-78
2022/07/09 07:39:25;;;;;;;6.15;2.35;;;;;;;19.82;58.72;100299.91;4342270;32;34953;-79
2022/07/09 07:42:11;;;;;;;5.03;2.10;;;;;;;20.04;58.06;100288.16;4336612;32;34816;-79
2022/07/09 07:44:57;;;;;;;6.85;2.85;;;;;;;19.55;58.84;100289.25;4350323;32;35339;-80
2022/07/09 07:47:43;;;;;;;7.25;2.22;;;;;;;20.00;57.42;100293.63;4351434;32;34394;-78
2022/07/09 07:50:32;;;;;;;2.72;1.75;;;;;;;19.67;57.29;100288.41;4337880;32;34989;-78
2022/07/09 07:53:18;;;;;;;5.55;2.28;;;;;;;20.40;55.61;100277.87;4347837;32;34802;-81
2022/07/09 07:56:05;;;;;;;7.37;2.28;;;;;;;20.11;55.67;100288.31;4345089;32;34355;-79
2022/07/09 07:58:51;;;;;;;6.65;2.50;;;;;;;20.43;56.32;100283.56;4337323;32;34696;-79
2022/07/09 08:01:38;;;;;;;6.47;2.30;;;;;;;20.71;54.30;100271.47;4344587;32;34604;-80
2022/07/09 08:04:24;;;;;;;7.35;2.20;;;;;;;20.11;56.00;100276.41;4351799;32;35591;-81
2022/07/09 08:07:10;;;;;;;10.23;2.20;;;;;;;20.19;56.14;100273.44;4359213;32;34407;-78
2022/07/09 08:09:57;;;;;;;4.70;2.17;;;;;;;20.47;55.69;100272.50;4358411;32;34366;-77
2022/07/09 08:12:43;;;;;;;4.28;2.17;;;;;;;20.77;53.76;100272.00;4358021;32;34533;-77
2022/07/09 08:15:29;;;;;;;3.90;1.98;;;;;;;20.45;55.19;100258.94;4340009;32;33762;-78
2022/07/09 08:18:15;;;;;;;5.22;1.95;;;;;;;20.59;53.84;100252.91;4345921;32;34388;-78
2022/07/09 08:21:02;;;;;;;5.15;2.10;;;;;;;20.86;52.94;100247.50;4343484;32;35544;-78
2022/07/09 08:23:54;;;;;;;5.72;2.12;;;;;;;21.00;52.69;100256.16;4357215;32;34500;-79
2022/07/09 08:26:40;;;;;;;5.15;2.15;;;;;;;21.49;49.73;100254.78;4359017;32;35750;-79
2022/07/09 08:29:26;;;;;;;6.05;2.28;;;;;;;20.99;51.49;100248.19;4357687;32;35377;-79
2022/07/09 08:32:12;;;;;;;5.47;1.70;;;;;;;21.11;50.94;100251.63;4347352;32;34248;-80
2022/07/09 08:34:59;;;;;;;5.30;1.80;;;;;;;21.23;48.89;100247.06;4358409;32;35755;-79
2022/07/09 08:37:45;;;;;;;5.35;1.73;;;;;;;21.46;49.54;100250.75;4358077;32;34647;-80
2022/07/09 08:40:32;;;;;;;4.05;1.87;;;;;;;21.23;47.97;100247.91;4356341;32;34514;-81
2022/07/09 08:43:18;;;;;;;3.55;1.50;;;;;;;21.44;48.07;100244.72;4342803;32;34208;-79
2022/07/09 08:46:05;;;;;;;5.40;1.50;;;;;;;21.68;47.24;100256.69;4358550;32;35548;-81
2022/07/09 08:48:52;;;;;;;4.07;1.50;;;;;;;21.99;46.60;100250.84;4337692;32;35711;-80
2022/07/09 08:51:41;;;;;;;4.45;1.40;;;;;;;22.27;45.18;100233.00;4357492;32;34901;-79
2022/07/09 08:54:27;;;;;;;3.80;1.40;;;;;;;22.56;43.84;100237.00;4345985;32;34697;-81
2022/07/09 08:57:14;;;;;;;4.50;1.60;;;;;;;22.94;44.12;100237.09;4345827;32;34795;-80
2022/07/09 09:00:03;;;;;;;5.80;1.60;;;;;;;23.08;40.88;100237.28;4343439;32;35768;-79
2022/07/09 09:02:49;;;;;;;4.78;1.62;;;;;;;23.21;42.12;100229.47;4357863;32;34412;-86
2022/07/09 09:05:36;;;;;;;3.53;1.50;;;;;;;23.17;41.53;100239.78;4347034;32;34596;-79
2022/07/09 09:08:22;;;;;;;4.60;1.60;;;;;;;22.66;41.59;100232.75;4358094;32;35991;-83
2022/07/09 09:11:20;;;;;;;4.32;1.52;;;;;;;22.16;42.86;100238.38;4350509;32;35349;-80
2022/07/09 09:14:06;;;;;;;5.30;1.70;;;;;;;22.89;40.82;100225.06;4342876;32;35822;-80
2022/07/09 09:16:53;;;;;;;4.53;1.50;;;;;;;22.85;40.41;100229.00;4342724;32;34187;-81
2022/07/09 09:19:39;;;;;;;4.00;1.33;;;;;;;23.31;40.99;100240.78;4358841;32;35971;-82
2022/07/09 09:22:25;;;;;;;3.22;1.45;;;;;;;22.83;40.04;100229.38;4356796;32;35940;-81
2022/07/09 09:25:19;;;;;;;2.10;1.30;;;;;;;23.02;39.93;100220.06;4358077;32;34335;-83
2022/07/09 09:28:14;;;;;;;6.57;2.00;;;;;;;23.23;38.86;100227.09;4344544;32;35318;-82
2022/07/09 09:31:01;;;;;;;2.40;1.27;;;;;;;23.33;38.88;100209.63;4357329;32;34954;-83
2022/07/09 09:33:47;;;;;;;6.05;1.42;;;;;;;23.45;38.01;100206.56;4358611;32;34628;-83
2022/07/09 09:36:38;;;;;;;9.00;1.50;;;;;;;23.34;39.34;100212.03;4357320;32;34366;-80
2022/07/09 09:39:29;;;;;;;6.72;1.60;;;;;;;22.90;40.06;100195.94;4357537;32;35845;-78
2022/07/09 09:42:15;;;;;;;5.93;1.87;;;;;;;23.00;39.83;100202.87;4345580;32;35600;-79
2022/07/09 09:45:01;;;;;;;8.68;1.62;;;;;;;23.66;38.77;100194.75;4345997;32;34916;-82
2022/07/09 09:47:49;;;;;;;4.15;1.35;;;;;;;23.06;39.77;100218.12;4346712;32;35233;-79
2022/07/09 09:50:35;;;;;;;3.75;1.20;;;;;;;22.90;39.69;100193.13;4339836;32;35698;-79
2022/07/09 09:53:25;;;;;;;5.55;1.55;;;;;;;23.53;38.94;100190.63;4358065;32;35991;-86
2022/07/09 09:56:15;;;;;;;5.57;1.55;;;;;;;24.26;38.96;100195.63;4346946;32;34797;-81
2022/07/09 09:59:01;;;;;;;3.10;1.50;;;;;;;23.74;38.15;100188.06;4345464;32;34323;-78
2022/07/09 10:01:48;;;;;;;2.85;1.30;;;;;;;23.97;37.78;100187.03;4358337;32;34646;-80
2022/07/09 10:04:40;;;;;;;2.40;1.35;;;;;;;24.05;37.80;100197.09;4343361;32;36012;-79
2022/07/09 10:07:26;;;;;;;3.42;1.27;;;;;;;23.89;35.88;100186.19;4341531;32;35531;-79
2022/07/09 10:10:18;;;;;;;3.53;1.30;;;;;;;24.12;35.38;100182.34;4348158;32;33952;-78
2022/07/09 10:13:04;;;;;;;3.35;1.40;;;;;;;24.73;35.11;100185.50;4354461;32;35673;-81
2022/07/09 10:15:51;;;;;;;5.25;1.27;;;;;;;24.61;34.70;100181.03;4351823;32;34995;-79
2022/07/09 10:18:37;;;;;;;2.58;1.40;;;;;;;24.27;36.16;100175.63;4343019;32;35714;-78
2022/07/09 10:21:39;;;;;;;7.68;1.70;;;;;;;24.48;35.24;100180.59;4357324;32;33990;-79
2022/07/09 10:24:29;;;;;;;4.87;1.50;;;;;;;25.07;34.79;100181.22;4335521;32;35601;-81
2022/07/09 10:27:16;;;;;;;3.70;1.45;;;;;;;24.44;35.29;100183.34;4341511;32;34964;-85
2022/07/09 10:30:06;;;;;;;4.12;1.20;;;;;;;24.08;35.33;100176.72;4354271;32;34953;-82
2022/07/09 10:33:11;;;;;;;2.70;1.20;;;;;;;23.97;35.43;100168.25;4347275;32;34917;-85
2022/07/09 10:35:58;;;;;;;5.95;1.50;;;;;;;24.33;34.59;100150.84;4351760;32;34968;-79
2022/07/09 10:38:58;;;;;;;3.33;1.52;;;;;;;24.27;34.62;100152.44;4344918;32;34558;-83
2022/07/09 10:41:45;;;;;;;5.20;1.30;;;;;;;24.26;36.04;100150.84;4347899;32;34511;-83
2022/07/09 10:44:38;;;;;;;3.85;1.20;;;;;;;25.15;33.85;100148.41;4346553;32;35272;-85
2022/07/09 10:47:24;;;;;;;4.00;1.33;;;;;;;24.82;33.36;100149.53;4347041;32;35496;-80
2022/07/09 10:50:10;;;;;;;4.07;1.70;;;;;;;25.15;33.18;100153.22;4352298;32;35010;-83
2022/07/09 10:52:57;;;;;;;4.62;1.60;;;;;;;25.39;33.06;100149.66;4347792;32;35438;-81
2022/07/09 10:55:45;;;;;;;3.12;1.50;;;;;;;25.77;32.13;100147.25;4343193;32;34425;-81
2022/07/09 10:58:31;;;;;;;2.50;1.60;;;;;;;25.79;33.51;100142.03;4346726;32;35471;-87
2022/07/09 11:01:24;;;;;;;2.85;1.35;;;;;;;25.65;32.91;100147.66;4350903;32;36652;-82
2022/07/09 11:04:12;;;;;;;4.85;1.70;;;;;;;25.62;33.13;100154.88;4347211;32;34920;-83
2022/07/09 11:06:58;;;;;;;3.50;1.40;;;;;;;25.29;32.70;100131.59;4331510;32;34088;-86
2022/07/09 11:09:47;;;;;;;4.72;1.52;;;;;;;25.89;31.91;100141.25;4350916;32;34604;-88
2022/07/09 11:12:34;;;;;;;6.07;1.65;;;;;;;24.95;33.17;100136.72;4347665;32;34635;-83
2022/07/09 11:15:21;;;;;;;3.47;1.60;;;;;;;25.61;32.34;100135.63;4359221;32;34606;-85
2022/07/09 11:18:13;;;;;;;3.65;1.27;;;;;;;24.33;33.11;100134.84;4341828;32;34861;-85
2022/07/09 11:20:59;;;;;;;2.20;1.17;;;;;;;24.95;31.71;100133.91;4345059;32;34696;-86
2022/07/09 11:23:49;;;;;;;3.92;1.33;;;;;;;25.42;31.78;100129.22;4357835;32;35917;-84
2022/07/09 11:26:35;;;;;;;3.00;1.20;;;;;;;25.32;32.14;100135.63;4358206;32;35512;-89
2022/07/09 11:29:21;;;;;;;4.30;1.12;;;;;;;24.98;32.65;100121.13;4356626;32;34395;-85
2022/07/09 11:32:15;;;;;;;4.03;1.20;;;;;;;25.37;31.92;100118.41;4344291;32;34189;-85
2022/07/09 11:35:02;;;;;;;3.65;1.17;;;;;;;25.20;32.92;100131.19;4330412;32;35049;-84
2022/07/09 11:37:48;;;;;;;2.30;1.20;;;;;;;25.12;33.75;100110.72;4346339;32;36272;-86
2022/07/09 11:40:35;;;;;;;3.20;1.48;;;;;;;25.47;33.29;100103.59;4359080;32;34376;-88
2022/07/09 11:43:21;;;;;;;2.10;1.10;;;;;;;25.95;31.63;100099.53;4358042;32;34120;-85
2022/07/09 11:46:08;;;;;;;3.67;1.30;;;;;;;25.56;31.85;100098.34;4345070;32;34596;-86
2022/07/09 11:48:54;;;;;;;3.25;1.30;;;;;;;25.80;31.32;100093.12;4342069;32;35848;-84
2022/07/09 11:51:41;;;;;;;1.67;1.10;;;;;;;26.22;31.03;100080.19;4357911;32;34393;-87
2022/07/09 11:54:31;;;;;;;3.00;1.33;;;;;;;26.01;28.81;100087.50;4358727;32;34651;-84
2022/07/09 11:57:21;;;;;;;4.68;1.40;;;;;;;25.15;30.40;100072.69;4358607;32;35084;-85
2022/07/09 12:00:20;;;;;;;2.58;1.30;;;;;;;25.27;31.64;100072.31;4348623;32;34323;-87
2022/07/09 12:03:07;;;;;;;2.90;1.20;;;;;;;25.77;31.93;100066.66;4344182;32;35728;-86
2022/07/09 12:05:54;;;;;;;4.28;1.48;;;;;;;25.90;30.84;100053.03;4342839;32;34683;-88
2022/07/09 12:08:40;;;;;;;4.18;1.10;;;;;;;25.91;31.39;100062.25;4345435;32;34994;-87
2022/07/09 12:11:27;;;;;;;2.80;1.00;;;;;;;26.58;30.59;100054.78;4349531;32;35865;-86
2022/07/09 12:14:14;;;;;;;4.55;0.93;;;;;;;26.19;31.24;100041.69;4335886;32;34388;-84
2022/07/09 12:17:01;;;;;;;3.28;1.00;;;;;;;25.94;31.65;100065.03;4345777;32;34620;-84
2022/07/09 12:19:48;;;;;;;1.73;0.93;;;;;;;25.92;30.74;100053.41;4347397;32;34693;-85
2022/07/09 12:22:34;;;;;;;2.28;1.05;;;;;;;26.01;31.42;100039.75;4343239;32;34798;-81
2022/07/09 12:25:21;;;;;;;1.25;0.90;;;;;;;26.13;30.90;100043.34;4351280;32;34104;-86
2022/07/09 12:28:07;;;;;;;3.25;1.20;;;;;;;25.82;31.71;100039.41;4333561;32;35415;-86
2022/07/09 12:30:53;;;;;;;2.28;0.90;;;;;;;25.57;31.87;100029.81;4343970;32;34530;-87
2022/07/09 12:33:40;;;;;;;3.85;0.90;;;;;;;26.07;31.89;100030.91;4348596;32;34881;-85
2022/07/09 12:36:27;;;;;;;2.87;0.80;;;;;;;27.05;30.12;100038.41;4342664;32;34262;-86
2022/07/09 12:39:33;;;;;;;3.83;0.82;;;;;;;26.18;30.92;100026.87;4347900;32;34201;-87
2022/07/09 12:42:22;;;;;;;2.62;0.70;;;;;;;26.15;31.54;100018.44;4348140;32;34946;-86
2022/07/09 12:45:09;;;;;;;1.95;0.80;;;;;;;25.65;31.83;100024.19;4336029;32;34324;-88
2022/07/09 12:47:56;;;;;;;3.17;0.80;;;;;;;26.29;31.37;100023.97;4338841;32;33967;-85
2022/07/09 12:50:43;;;;;;;2.90;0.80;;;;;;;25.73;30.23;100026.59;4344936;32;34166;-89
2022/07/09 12:53:29;;;;;;;3.45;0.90;;;;;;;25.60;32.05;100008.56;4346626;32;36025;-88
2022/07/09 12:56:15;;;;;;;5.95;0.80;;;;;;;26.06;31.35;100009.66;4355845;32;35867;-87